createdAt,value
2022-11-09T00:03:55.311Z,96974.09
2022-11-09T00:08:59.425Z,96954.44
2022-11-09T00:14:05.081Z,96943.53
2022-11-09T00:19:06.860Z,96936.66
2022-11-09T00:24:09.321Z,96936.25
2022-11-09T00:29:11.085Z,96920.63
2022-11-09T00:34:12.886Z,96936.38
2022-11-09T00:39:17.322Z,96926.94
2022-11-09T00:44:19.118Z,96931.97
2022-11-09T00:49:20.825Z,96924.25
2022-11-09T00:54:22.454Z,96917.63
2022-11-09T00:59:24.381Z,96916.00
2022-11-09T01:04:26.101Z,96921.38
2022-11-09T01:09:28.022Z,96919.06
2022-11-09T01:14:30.048Z,96923.47
2022-11-09T01:19:32.010Z,96915.41
2022-11-09T01:24:33.833Z,96918.38
2022-11-09T01:29:35.659Z,96916.09
2022-11-09T01:34:38.191Z,96920.69
2022-11-09T01:39:39.841Z,96926.06
2022-11-09T01:44:41.615Z,96937.28
2022-11-09T01:49:52.749Z,96936.38
2022-11-09T01:55:03.104Z,96941.16
2022-11-09T02:00:11.859Z,96938.69
2022-11-09T02:05:22.064Z,96945.34
2022-11-09T02:10:33.672Z,96952.06
2022-11-09T02:15:39.163Z,96945.16
2022-11-09T02:20:49.284Z,96941.91
2022-11-09T02:26:01.529Z,96945.75
2022-11-09T02:31:06.737Z,96935.72
2022-11-09T02:36:08.600Z,96931.25
2022-11-09T02:41:12.991Z,96924.69
2022-11-09T02:46:24.124Z,96931.59
2022-11-09T02:51:25.882Z,96923.22
2022-11-09T02:56:29.198Z,96938.47
2022-11-09T03:01:31.523Z,96924.97
2022-11-09T03:06:36.803Z,96929.97
2022-11-09T03:11:44.836Z,96930.69
2022-11-09T03:16:50.676Z,96925.09
2022-11-09T03:21:53.422Z,96929.72
2022-11-09T03:26:58.484Z,96931.38
2022-11-09T03:32:00.602Z,96942.41
2022-11-09T03:37:02.545Z,96936.84
2022-11-09T03:42:04.890Z,96931.06
2022-11-09T03:47:06.874Z,96936.00
2022-11-09T03:52:08.640Z,96928.59
2022-11-09T03:57:10.326Z,96937.72
2022-11-09T04:02:12.061Z,96928.91
2022-11-09T04:07:13.873Z,96926.09
2022-11-09T04:12:15.640Z,96926.31
2022-11-09T04:17:17.332Z,96925.53
2022-11-09T04:22:19.138Z,96922.81
2022-11-09T04:27:20.856Z,96923.91
2022-11-09T04:32:22.619Z,96915.16
2022-11-09T04:37:24.441Z,96897.81
2022-11-09T04:42:26.124Z,96905.44
2022-11-09T04:47:27.970Z,96909.81
2022-11-09T04:52:29.693Z,96910.44
2022-11-09T04:57:31.458Z,96942.31
2022-11-09T05:02:33.179Z,96938.84
2022-11-09T05:07:34.905Z,96949.75
2022-11-09T05:12:36.532Z,96956.34
2022-11-09T05:17:38.181Z,96964.19
2022-11-09T05:22:59.544Z,96946.41
2022-11-09T05:28:01.534Z,96953.34
2022-11-09T05:33:03.449Z,96950.00
2022-11-09T05:38:05.177Z,96968.78
2022-11-09T05:43:06.940Z,96962.28
2022-11-09T05:48:09.160Z,96980.09
2022-11-09T05:53:12.188Z,96984.81
2022-11-09T05:58:14.081Z,96994.69
2022-11-09T06:03:15.756Z,97006.84
2022-11-09T06:08:17.435Z,97025.63
2022-11-09T06:13:19.503Z,97030.06
2022-11-09T06:18:25.492Z,97017.66
2022-11-09T06:23:27.722Z,97011.47
2022-11-09T06:28:29.996Z,97036.84
2022-11-09T06:33:33.764Z,97056.19
2022-11-09T06:38:35.654Z,97049.19
2022-11-09T06:43:37.454Z,97047.63
2022-11-09T06:48:39.391Z,97037.31
2022-11-09T06:53:41.437Z,97035.31
2022-11-09T06:58:43.571Z,97041.41
2022-11-09T07:03:45.303Z,97054.47
2022-11-09T07:08:47.079Z,97071.00
2022-11-09T07:13:54.787Z,97081.09
2022-11-09T07:18:58.920Z,97069.81
2022-11-09T07:24:00.688Z,97064.72
2022-11-09T07:29:02.377Z,97052.84
2022-11-09T07:34:04.887Z,97071.97
2022-11-09T07:39:06.595Z,97059.38
2022-11-09T07:44:08.926Z,97063.44
2022-11-09T07:49:10.701Z,97065.59
2022-11-09T07:54:12.709Z,97065.28
2022-11-09T07:59:14.382Z,97068.69
2022-11-09T08:04:16.141Z,97071.53
2022-11-09T08:09:18.484Z,97077.59
2022-11-09T08:14:20.373Z,97093.81
2022-11-09T08:19:22.131Z,97084.38
2022-11-09T08:24:24.370Z,97083.44
2022-11-09T08:29:26.096Z,97081.59
2022-11-09T08:34:27.859Z,97074.81
2022-11-09T08:39:29.543Z,97079.22
2022-11-09T08:44:31.276Z,97080.63
2022-11-09T08:49:32.962Z,97090.84
2022-11-09T08:54:36.331Z,97093.31
2022-11-09T08:59:38.306Z,97084.88
2022-11-09T09:04:40.501Z,97090.63
2022-11-09T09:09:42.209Z,97101.31
2022-11-09T09:14:43.897Z,97099.19
2022-11-09T09:19:49.805Z,97104.97
2022-11-09T09:24:51.904Z,97111.84
2022-11-09T09:29:53.741Z,97112.41
2022-11-09T09:34:55.481Z,97109.13
2022-11-09T09:39:57.175Z,97115.19
2022-11-09T09:45:04.687Z,97120.13
2022-11-09T09:50:14.275Z,97113.78
2022-11-09T09:55:24.450Z,97115.44
2022-11-09T10:00:27.903Z,97115.69
2022-11-09T10:05:44.382Z,97122.47
2022-11-09T10:10:56.185Z,97115.03
2022-11-09T10:16:29.619Z,97114.41
2022-11-09T10:21:43.485Z,97107.72
2022-11-09T10:26:55.097Z,97095.44
2022-11-09T10:32:14.548Z,97093.16
2022-11-09T10:37:22.889Z,97093.53
2022-11-09T10:42:24.569Z,97077.22
2022-11-09T10:47:47.920Z,97080.66
2022-11-09T10:53:10.754Z,97068.97
2022-11-09T10:58:47.242Z,97063.59
2022-11-09T11:04:22.948Z,97070.88
2022-11-09T11:09:43.612Z,97065.84
2022-11-09T11:15:14.435Z,97055.81
2022-11-09T11:20:37.541Z,97037.03
2022-11-09T11:26:23.646Z,97032.81
2022-11-09T11:31:44.314Z,97034.97
2022-11-09T11:37:35.415Z,97034.66
2022-11-09T11:43:17.238Z,97038.25
2022-11-09T11:48:41.512Z,97032.75
2022-11-09T11:54:01.700Z,97031.63
2022-11-09T11:59:33.170Z,97031.13
2022-11-09T12:05:12.428Z,97025.31
2022-11-09T12:11:01.793Z,97019.22
2022-11-09T12:16:28.422Z,97010.06
2022-11-09T12:22:18.380Z,96996.97
2022-11-09T12:28:21.769Z,96997.19
2022-11-09T12:33:49.426Z,96996.41
2022-11-09T12:39:25.974Z,96986.44
2022-11-09T12:45:01.789Z,96985.75
2022-11-09T12:50:25.524Z,96974.94
2022-11-09T12:55:55.837Z,96971.63
2022-11-09T13:01:34.578Z,96961.41
2022-11-09T13:07:04.144Z,96971.00
2022-11-09T13:12:39.216Z,96966.53
2022-11-09T13:18:23.871Z,96961.22
2022-11-09T13:24:03.332Z,96955.72
2022-11-09T13:29:30.804Z,96964.06
2022-11-09T13:34:56.273Z,96963.88
2022-11-09T13:40:31.671Z,96966.41
2022-11-09T13:45:55.929Z,96967.72
2022-11-09T13:51:35.540Z,96974.69
2022-11-09T13:56:56.852Z,96986.09
2022-11-09T14:02:22.806Z,96977.09
2022-11-09T14:07:43.383Z,96975.00
2022-11-09T14:13:34.494Z,96979.88
2022-11-09T14:19:17.970Z,96978.31
2022-11-09T14:24:38.564Z,96976.88
2022-11-09T14:30:02.356Z,96979.16
2022-11-09T14:35:22.957Z,96979.69
2022-11-09T14:40:45.771Z,96988.97
2022-11-09T14:46:07.559Z,96992.94
2022-11-09T14:51:33.291Z,96977.63
2022-11-09T14:56:55.190Z,96980.56
2022-11-09T15:02:18.405Z,96978.50
2022-11-09T15:07:38.707Z,96970.88
2022-11-09T15:13:02.300Z,96982.94
2022-11-09T15:18:33.476Z,96981.59
2022-11-09T15:24:17.589Z,96988.56
2022-11-09T15:29:42.995Z,96990.81
2022-11-09T15:35:13.578Z,96999.47
2022-11-09T15:40:33.597Z,97007.81
2022-11-09T15:45:54.858Z,97021.06
2022-11-09T15:51:16.014Z,97033.19
2022-11-09T15:56:36.495Z,97027.19
2022-11-09T16:01:56.943Z,97028.34
2022-11-09T16:07:17.468Z,97037.75
2022-11-09T16:12:39.476Z,97038.75
2022-11-09T16:18:04.114Z,97046.94
2022-11-09T16:23:25.348Z,97060.19
2022-11-09T16:28:46.319Z,97054.69
2022-11-09T16:34:07.684Z,97067.63
2022-11-09T16:39:28.071Z,97076.19
2022-11-09T16:44:49.449Z,97078.47
2022-11-09T16:50:09.865Z,97086.50
2022-11-09T16:55:30.833Z,97091.75
2022-11-09T17:06:33.875Z,97099.50
2022-11-09T17:11:54.220Z,97106.31
2022-11-09T17:17:21.273Z,97114.84
2022-11-09T17:22:46.109Z,97114.88
2022-11-09T17:28:07.625Z,97110.44
2022-11-09T17:33:28.469Z,97112.00
2022-11-09T17:38:48.902Z,97110.59
2022-11-09T17:44:09.625Z,97125.66
2022-11-09T17:49:29.875Z,97138.19
2022-11-09T17:54:50.475Z,97137.53
2022-11-09T18:00:11.481Z,97149.06
2022-11-09T18:05:31.867Z,97158.63
2022-11-09T18:10:51.900Z,97165.50
2022-11-09T18:16:17.728Z,97169.06
2022-11-09T18:21:39.122Z,97177.59
2022-11-09T18:26:59.929Z,97167.19
2022-11-09T18:32:20.045Z,97164.72
2022-11-09T18:37:40.777Z,97160.63
2022-11-09T18:43:01.264Z,97158.97
2022-11-09T18:48:21.994Z,97168.31
2022-11-09T18:53:44.431Z,97160.06
2022-11-09T18:59:05.104Z,97177.97
2022-11-09T19:04:25.932Z,97185.38
2022-11-09T19:09:46.139Z,97185.66
2022-11-09T19:15:07.456Z,97197.50
2022-11-09T19:20:28.987Z,97208.50
2022-11-09T19:25:50.271Z,97214.56
2022-11-09T19:31:18.795Z,97225.03
2022-11-09T19:36:39.604Z,97230.00
2022-11-09T19:41:59.496Z,97232.19
2022-11-09T19:47:20.093Z,97241.00
2022-11-09T19:52:40.808Z,97245.16
2022-11-09T19:58:01.124Z,97253.69
2022-11-09T20:03:21.530Z,97255.34
2022-11-09T20:08:41.878Z,97266.59
2022-11-09T20:14:06.029Z,97259.75
2022-11-09T20:19:26.160Z,97267.19
2022-11-09T20:24:46.610Z,97268.31
2022-11-09T20:30:07.641Z,97269.66
2022-11-09T20:35:28.192Z,97274.31
2022-11-09T20:41:00.145Z,97281.47
2022-11-09T20:46:22.913Z,97288.34
2022-11-09T20:51:43.301Z,97291.94
2022-11-09T20:57:03.772Z,97297.72
2022-11-09T21:02:24.378Z,97309.28
2022-11-09T21:07:44.640Z,97307.59
2022-11-09T21:13:05.131Z,97326.03
2022-11-09T21:18:25.544Z,97337.28
2022-11-09T21:24:04.692Z,97338.13
2022-11-09T21:29:43.535Z,97343.91
2022-11-09T21:35:04.808Z,97341.44
2022-11-09T21:40:25.099Z,97340.03
2022-11-09T21:45:49.287Z,97350.47
2022-11-09T21:51:09.321Z,97355.97
2022-11-09T21:56:30.127Z,97351.84
2022-11-09T22:01:52.052Z,97358.72
2022-11-09T22:07:12.698Z,97362.00
2022-11-09T22:12:51.653Z,97373.00
2022-11-09T22:18:31.933Z,97376.56
2022-11-09T22:23:52.285Z,97379.59
2022-11-09T22:29:12.400Z,97385.09
2022-11-09T22:34:32.586Z,97392.25
2022-11-09T22:39:52.728Z,97390.31
2022-11-09T22:45:13.152Z,97396.06
2022-11-09T22:50:33.335Z,97401.84
2022-11-09T22:55:58.730Z,97405.41
2022-11-09T23:01:20.451Z,97403.22
2022-11-09T23:06:40.898Z,97422.72
2022-11-09T23:12:01.379Z,97418.06
2022-11-09T23:17:40.295Z,97433.97
2022-11-09T23:23:00.621Z,97436.16
2022-11-09T23:28:21.395Z,97436.16
2022-11-09T23:33:42.543Z,97444.41
2022-11-09T23:39:03.048Z,97442.22
2022-11-09T23:44:23.309Z,97453.47
2022-11-09T23:49:43.909Z,97448.25
2022-11-09T23:55:04.592Z,97452.63
